createdAt,value
2023-02-11T00:00:42.642Z,95.47
2023-02-11T00:03:09.738Z,81.72
2023-02-11T00:05:37.141Z,76.72
2023-02-11T00:08:03.815Z,74.65
2023-02-11T00:10:30.499Z,75.40
2023-02-11T00:12:57.178Z,69.55
2023-02-11T00:15:23.796Z,85.22
2023-02-11T00:17:50.353Z,74.78
2023-02-11T00:20:16.999Z,73.15
2023-02-11T00:22:43.797Z,64.07
2023-02-11T00:25:10.569Z,61.28
2023-02-11T00:27:37.818Z,55.60
2023-02-11T00:30:05.468Z,78.70
2023-02-11T00:32:32.386Z,84.15
2023-02-11T00:34:58.950Z,90.30
2023-02-11T00:37:25.543Z,87.38
2023-02-11T00:39:52.205Z,73.43
2023-02-11T00:42:19.871Z,76.75
2023-02-11T00:44:46.427Z,61.05
2023-02-11T00:47:13.009Z,76.72
2023-02-11T00:49:40.457Z,64.25
2023-02-11T00:52:07.351Z,75.60
2023-02-11T00:54:33.917Z,71.60
2023-02-11T00:57:00.676Z,80.20
2023-02-11T00:59:27.364Z,51.53
2023-02-11T01:01:53.981Z,54.85
2023-02-11T01:04:20.589Z,66.95
2023-02-11T01:06:47.191Z,69.13
2023-02-11T01:09:13.895Z,66.90
2023-02-11T01:11:40.502Z,66.68
2023-02-11T01:14:07.045Z,58.97
2023-02-11T01:16:33.628Z,55.70
2023-02-11T01:19:00.250Z,68.03
2023-02-11T01:21:26.862Z,65.25
2023-02-11T01:23:53.501Z,70.72
2023-02-11T01:26:20.305Z,77.00
2023-02-11T01:28:47.000Z,79.80
2023-02-11T01:31:14.291Z,76.95
2023-02-11T01:33:41.026Z,75.75
2023-02-11T01:36:08.204Z,90.00
2023-02-11T01:38:35.510Z,71.57
2023-02-11T01:41:05.922Z,65.68
2023-02-11T01:43:35.908Z,72.85
2023-02-11T01:46:20.116Z,60.97
2023-02-11T01:48:55.458Z,60.90
2023-02-11T01:51:27.379Z,61.70
2023-02-11T01:54:14.407Z,51.47
2023-02-11T01:57:05.815Z,53.92
2023-02-11T01:59:46.023Z,43.22
2023-02-11T02:02:15.782Z,50.13
2023-02-11T02:05:05.183Z,60.47
2023-02-11T02:07:39.066Z,48.20
2023-02-11T02:10:13.542Z,55.85
2023-02-11T02:12:40.108Z,57.05
2023-02-11T02:15:22.221Z,70.82
2023-02-11T02:18:17.374Z,63.25
2023-02-11T02:21:02.693Z,66.63
2023-02-11T02:24:04.682Z,67.95
2023-02-11T02:26:37.296Z,53.90
2023-02-11T02:29:22.395Z,61.95
2023-02-11T02:32:11.740Z,57.38
2023-02-11T02:34:58.520Z,53.53
2023-02-11T02:37:33.085Z,58.67
2023-02-11T02:40:07.621Z,58.72
2023-02-11T02:42:34.610Z,61.90
2023-02-11T02:45:01.323Z,58.47
2023-02-11T02:47:28.058Z,71.28
2023-02-11T02:49:54.594Z,60.85
2023-02-11T02:52:30.133Z,66.63
2023-02-11T02:55:17.927Z,62.08
2023-02-11T02:58:11.886Z,61.28
2023-02-11T03:00:52.847Z,63.97
2023-02-11T03:03:26.721Z,53.40
2023-02-11T03:06:22.460Z,54.58
2023-02-11T03:09:01.583Z,60.97
2023-02-11T03:11:29.245Z,65.43
2023-02-11T03:13:57.473Z,59.75
2023-02-11T03:16:27.861Z,64.97
2023-02-11T03:19:06.667Z,80.05
2023-02-11T03:21:36.573Z,66.90
2023-02-11T03:26:32.683Z,62.10
2023-02-11T03:29:08.064Z,73.18
2023-02-11T03:31:47.774Z,78.32
2023-02-11T03:34:41.186Z,58.17
2023-02-11T03:37:36.883Z,58.25
2023-02-11T03:40:06.622Z,55.17
2023-02-11T03:42:39.855Z,64.40
2023-02-11T03:45:10.761Z,49.80
2023-02-11T03:47:40.237Z,64.00
2023-02-11T03:50:09.110Z,52.22
2023-02-11T03:52:37.962Z,57.13
2023-02-11T03:55:11.005Z,61.90
2023-02-11T03:57:38.129Z,52.30
2023-02-11T04:00:05.830Z,49.25
2023-02-11T04:02:35.568Z,49.72
2023-02-11T04:05:02.603Z,44.63
2023-02-11T04:07:29.479Z,47.25
2023-02-11T04:09:56.043Z,57.30
2023-02-11T04:12:22.737Z,41.25
2023-02-11T04:14:49.327Z,59.33
2023-02-11T04:17:16.517Z,59.15
2023-02-11T04:19:43.187Z,46.85
2023-02-11T04:22:10.180Z,60.20
2023-02-11T04:24:36.856Z,55.35
2023-02-11T04:27:03.604Z,56.92
2023-02-11T04:29:30.337Z,66.40
2023-02-11T04:31:56.944Z,50.60
2023-02-11T04:34:24.546Z,67.82
2023-02-11T04:36:51.175Z,74.45
2023-02-11T04:39:17.717Z,73.72
2023-02-11T04:41:44.440Z,62.10
2023-02-11T04:44:11.153Z,52.13
2023-02-11T04:46:37.797Z,52.08
2023-02-11T04:49:04.490Z,62.03
2023-02-11T04:51:31.148Z,59.47
2023-02-11T04:53:57.779Z,59.47
2023-02-11T04:56:24.484Z,66.10
2023-02-11T04:58:51.163Z,93.88
2023-02-11T05:01:17.863Z,90.00
2023-02-11T05:03:44.783Z,90.03
2023-02-11T05:06:11.777Z,87.53
2023-02-11T05:08:38.630Z,106.10
2023-02-11T05:11:05.752Z,120.90
2023-02-11T05:13:32.642Z,143.82
2023-02-11T05:15:59.374Z,115.75
2023-02-11T05:18:25.966Z,105.75
2023-02-11T05:20:52.547Z,107.57
2023-02-11T05:23:19.178Z,96.00
2023-02-11T05:25:45.782Z,110.70
2023-02-11T05:28:12.416Z,98.97
2023-02-11T05:30:39.077Z,95.72
2023-02-11T05:33:05.797Z,94.38
2023-02-11T05:35:32.486Z,105.88
2023-02-11T05:37:59.077Z,99.57
2023-02-11T05:40:25.691Z,115.10
2023-02-11T05:42:52.242Z,235.68
2023-02-11T05:45:18.838Z,255.38
2023-02-11T05:47:45.545Z,248.77
2023-02-11T05:50:12.181Z,172.18
2023-02-11T05:52:38.752Z,136.65
2023-02-11T05:55:06.000Z,97.07
2023-02-11T05:57:32.642Z,91.90
2023-02-11T05:59:59.351Z,81.07
2023-02-11T06:02:26.066Z,79.88
2023-02-11T06:04:52.710Z,77.95
2023-02-11T06:07:19.823Z,103.90
2023-02-11T06:09:46.440Z,98.10
2023-02-11T06:12:13.163Z,98.85
2023-02-11T06:14:39.769Z,105.07
2023-02-11T06:17:06.373Z,143.52
2023-02-11T06:19:32.943Z,163.35
2023-02-11T06:21:59.637Z,171.88
2023-02-11T06:24:50.986Z,139.38
2023-02-11T06:27:12.841Z,156.65
2023-02-11T06:29:39.518Z,121.50
2023-02-11T06:32:06.223Z,128.88
2023-02-11T06:34:32.871Z,123.15
2023-02-11T06:36:59.429Z,122.03
2023-02-11T06:39:25.941Z,125.20
2023-02-11T06:41:52.720Z,149.57
2023-02-11T06:44:19.291Z,152.88
2023-02-11T06:46:46.038Z,183.27
2023-02-11T06:49:13.419Z,184.38
2023-02-11T06:51:40.124Z,182.40
2023-02-11T06:54:07.385Z,178.75
2023-02-11T06:56:34.396Z,174.65
2023-02-11T06:59:01.132Z,172.45
2023-02-11T07:01:28.583Z,177.73
2023-02-11T07:03:55.236Z,174.85
2023-02-11T07:06:24.802Z,185.63
2023-02-11T07:08:51.552Z,175.00
2023-02-11T07:11:24.482Z,157.00
2023-02-11T07:13:52.013Z,146.35
2023-02-11T07:16:19.126Z,140.27
2023-02-11T07:18:47.116Z,139.48
2023-02-11T07:21:16.654Z,117.50
2023-02-11T07:23:43.670Z,131.93
2023-02-11T07:26:13.007Z,117.85
2023-02-11T07:28:40.767Z,115.10
2023-02-11T07:31:07.976Z,103.88
2023-02-11T07:33:35.348Z,104.25
2023-02-11T07:36:01.954Z,102.57
2023-02-11T07:38:28.558Z,94.05
2023-02-11T07:40:55.131Z,95.75
2023-02-11T07:43:21.803Z,102.60
2023-02-11T07:45:48.766Z,100.35
2023-02-11T07:48:15.541Z,96.63
2023-02-11T07:50:42.206Z,103.03
2023-02-11T07:53:08.771Z,109.40
2023-02-11T07:55:35.633Z,95.65
2023-02-11T07:58:02.146Z,99.50
2023-02-11T08:00:28.695Z,98.28
2023-02-11T08:02:57.313Z,78.07
2023-02-11T08:05:24.204Z,92.18
2023-02-11T08:07:54.702Z,82.60
2023-02-11T08:10:21.591Z,82.07
2023-02-11T08:12:48.338Z,86.00
2023-02-11T08:15:15.054Z,76.90
2023-02-11T08:17:41.594Z,72.97
2023-02-11T08:20:08.505Z,83.22
2023-02-11T08:22:36.501Z,89.70
2023-02-11T08:25:03.271Z,96.93
2023-02-11T08:27:29.874Z,89.00
2023-02-11T08:29:56.597Z,79.40
2023-02-11T08:32:25.603Z,70.80
2023-02-11T08:34:53.072Z,62.27
2023-02-11T08:37:20.337Z,73.28
2023-02-11T08:39:47.483Z,59.38
2023-02-11T08:42:15.732Z,61.42
2023-02-11T08:44:43.068Z,64.18
2023-02-11T08:47:09.783Z,66.43
2023-02-11T08:49:36.485Z,59.78
2023-02-11T08:52:04.265Z,56.13
2023-02-11T08:54:31.751Z,56.42
2023-02-11T08:56:58.301Z,60.50
2023-02-11T08:59:25.058Z,61.25
2023-02-11T09:01:51.980Z,60.08
2023-02-11T09:04:18.957Z,54.25
2023-02-11T09:06:45.852Z,63.90
2023-02-11T09:09:14.050Z,50.80
2023-02-11T09:11:41.971Z,52.88
2023-02-11T09:14:15.010Z,51.03
2023-02-11T09:16:43.161Z,49.45
2023-02-11T09:19:10.694Z,49.75
2023-02-11T09:21:37.345Z,53.80
2023-02-11T09:24:04.262Z,56.38
2023-02-11T09:26:33.817Z,51.33
2023-02-11T09:29:01.170Z,56.10
2023-02-11T09:31:30.194Z,48.97
2023-02-11T09:34:02.860Z,51.43
2023-02-11T09:36:33.060Z,56.45
2023-02-11T09:39:01.178Z,52.53
2023-02-11T09:41:58.613Z,59.50
2023-02-11T09:44:28.392Z,47.38
2023-02-11T09:46:58.631Z,58.90
2023-02-11T09:49:42.217Z,51.47
2023-02-11T09:52:25.034Z,46.92
2023-02-11T09:55:01.969Z,44.00
2023-02-11T09:57:36.525Z,45.80
2023-02-11T10:00:18.082Z,48.60
2023-02-11T10:03:06.421Z,46.92
2023-02-11T10:05:35.871Z,43.50
2023-02-11T10:08:13.645Z,44.25
2023-02-11T10:10:46.977Z,57.05
2023-02-11T10:13:40.859Z,41.95
2023-02-11T10:16:24.058Z,42.70
2023-02-11T10:19:11.359Z,47.40
2023-02-11T10:22:05.553Z,53.78
2023-02-11T10:24:33.726Z,47.55
2023-02-11T10:27:00.279Z,45.28
2023-02-11T10:29:40.678Z,44.47
2023-02-11T10:32:43.156Z,45.22
2023-02-11T10:35:18.059Z,45.53
2023-02-11T10:37:45.597Z,45.83
2023-02-11T10:40:32.504Z,47.55
2023-02-11T10:43:03.957Z,52.92
2023-02-11T10:45:32.779Z,47.55
2023-02-11T10:48:01.628Z,49.92
2023-02-11T10:50:32.555Z,47.80
2023-02-11T10:53:24.394Z,44.95
2023-02-11T10:55:55.918Z,45.35
2023-02-11T10:58:30.618Z,48.20
2023-02-11T11:01:00.034Z,43.88
2023-02-11T11:03:32.245Z,49.15
2023-02-11T11:06:02.137Z,46.05
2023-02-11T11:08:42.637Z,43.80
2023-02-11T11:11:15.094Z,43.70
2023-02-11T11:14:03.812Z,52.05
2023-02-11T11:16:36.651Z,46.15
2023-02-11T11:19:06.155Z,42.85
2023-02-11T11:21:47.719Z,54.53
2023-02-11T11:24:34.406Z,38.35
2023-02-11T11:27:04.186Z,46.40
2023-02-11T11:29:36.702Z,56.50
2023-02-11T11:32:06.832Z,44.92
2023-02-11T11:34:48.404Z,37.90
2023-02-11T11:37:22.710Z,45.33
2023-02-11T11:40:08.124Z,46.80
2023-02-11T11:42:37.444Z,50.42
2023-02-11T11:45:24.916Z,44.33
2023-02-11T11:48:10.714Z,45.88
2023-02-11T11:50:43.510Z,48.70
2023-02-11T11:53:28.928Z,49.83
2023-02-11T11:56:20.165Z,46.13
2023-02-11T11:58:47.183Z,46.83
2023-02-11T12:01:22.795Z,42.60
2023-02-11T12:04:23.179Z,42.47
2023-02-11T12:07:20.825Z,44.08
2023-02-11T12:10:22.861Z,45.78
2023-02-11T12:13:32.700Z,45.17
2023-02-11T12:16:21.404Z,49.47
2023-02-11T12:19:13.960Z,46.10
2023-02-11T12:21:48.537Z,40.97
2023-02-11T12:24:29.684Z,47.58
2023-02-11T12:27:09.850Z,45.88
2023-02-11T12:30:01.931Z,46.55
2023-02-11T12:33:00.986Z,44.15
2023-02-11T12:36:05.125Z,39.20
2023-02-11T12:38:50.980Z,39.83
2023-02-11T12:42:00.501Z,41.72
2023-02-11T12:44:53.239Z,41.72
2023-02-11T12:47:38.099Z,43.80
2023-02-11T12:50:05.252Z,41.42
2023-02-11T12:52:46.794Z,48.97
2023-02-11T12:55:26.920Z,41.45
2023-02-11T12:57:57.050Z,41.17
2023-02-11T13:00:29.212Z,42.72
2023-02-11T13:03:11.079Z,45.45
2023-02-11T13:05:50.171Z,47.28
2023-02-11T13:08:24.964Z,47.37
2023-02-11T13:10:57.788Z,57.13
2023-02-11T13:13:33.480Z,46.53
2023-02-11T13:16:11.815Z,47.05
2023-02-11T13:18:49.591Z,72.40
2023-02-11T13:21:16.473Z,53.58
2023-02-11T13:23:52.278Z,54.30
2023-02-11T13:26:33.344Z,47.95
2023-02-11T13:29:14.802Z,46.53
2023-02-11T13:31:41.645Z,42.10
2023-02-11T13:34:46.668Z,49.78
2023-02-11T13:37:23.895Z,40.85
2023-02-11T13:40:19.720Z,47.83
2023-02-11T13:43:02.728Z,38.70
2023-02-11T13:45:40.056Z,48.47
2023-02-11T13:48:23.733Z,41.85
2023-02-11T13:50:54.365Z,49.20
2023-02-11T13:53:21.385Z,55.15
2023-02-11T13:55:52.179Z,58.65
2023-02-11T13:58:36.449Z,54.28
2023-02-11T14:01:03.503Z,42.47
2023-02-11T14:03:56.952Z,46.38
2023-02-11T14:06:45.208Z,36.67
2023-02-11T14:09:14.630Z,37.33
2023-02-11T14:11:41.700Z,39.38
2023-02-11T14:14:21.781Z,39.17
2023-02-11T14:17:00.501Z,36.70
2023-02-11T14:19:43.753Z,39.45
2023-02-11T14:22:10.265Z,41.75
2023-02-11T14:24:36.744Z,40.05
2023-02-11T14:27:23.210Z,39.80
2023-02-11T14:30:30.903Z,52.97
2023-02-11T14:33:15.972Z,43.72
2023-02-11T14:36:13.122Z,52.90
2023-02-11T14:38:52.913Z,52.88
2023-02-11T14:41:25.813Z,55.33
2023-02-11T14:43:55.714Z,51.97
2023-02-11T14:46:24.516Z,46.53
2023-02-11T14:48:55.386Z,52.75
2023-02-11T14:51:26.667Z,51.30
2023-02-11T14:54:00.648Z,46.17
2023-02-11T14:56:31.223Z,49.65
2023-02-11T14:58:58.705Z,48.50
2023-02-11T15:01:35.408Z,46.90
2023-02-11T15:04:05.487Z,39.40
2023-02-11T15:09:07.864Z,47.53
2023-02-11T15:11:39.897Z,45.10
2023-02-11T15:14:10.052Z,48.80
2023-02-11T15:19:17.055Z,63.25
2023-02-11T15:21:45.858Z,53.47
2023-02-11T15:24:25.551Z,54.10
2023-02-11T15:27:16.251Z,53.67
2023-02-11T15:29:46.691Z,64.43
2023-02-11T15:32:24.926Z,72.97
2023-02-11T15:34:53.929Z,53.17
2023-02-11T15:37:22.164Z,51.15
2023-02-11T15:39:49.378Z,54.50
2023-02-11T15:42:27.913Z,64.15
2023-02-11T15:45:24.734Z,51.38
2023-02-11T15:47:54.468Z,55.60
2023-02-11T15:50:24.481Z,55.97
2023-02-11T15:55:19.570Z,61.20
2023-02-11T15:57:51.354Z,63.53
2023-02-11T16:00:21.198Z,55.85
2023-02-11T16:02:49.681Z,54.85
2023-02-11T16:05:33.533Z,61.33
2023-02-11T16:08:01.721Z,59.78
2023-02-11T16:10:33.491Z,60.05
2023-02-11T16:13:06.205Z,56.92
2023-02-11T16:15:52.628Z,56.90
2023-02-11T16:18:38.468Z,55.35
2023-02-11T16:21:13.109Z,61.25
2023-02-11T16:23:42.450Z,56.47
2023-02-11T16:26:39.383Z,58.08
2023-02-11T16:29:17.907Z,63.88
2023-02-11T16:31:47.368Z,66.63
2023-02-11T16:34:17.072Z,67.85
2023-02-11T16:36:44.006Z,59.17
2023-02-11T16:39:11.238Z,64.95
2023-02-11T16:41:37.853Z,67.28
2023-02-11T16:44:04.756Z,63.97
2023-02-11T16:46:32.016Z,69.15
2023-02-11T16:49:10.288Z,71.35
2023-02-11T16:51:40.406Z,72.13
2023-02-11T16:54:07.059Z,70.22
2023-02-11T16:56:33.591Z,70.97
2023-02-11T16:59:00.732Z,75.03
2023-02-11T17:01:27.394Z,77.65
2023-02-11T17:03:54.062Z,76.10
2023-02-11T17:06:20.732Z,79.70
2023-02-11T17:08:47.332Z,71.65
2023-02-11T17:11:17.124Z,75.80
2023-02-11T17:13:44.107Z,76.97
2023-02-11T17:16:22.602Z,91.15
2023-02-11T17:18:49.525Z,93.75
2023-02-11T17:21:16.350Z,64.38
2023-02-11T17:23:43.557Z,68.43
2023-02-11T17:26:10.328Z,94.85
2023-02-11T17:28:36.955Z,138.60
2023-02-11T17:31:08.695Z,169.10
2023-02-11T17:33:36.360Z,219.23
2023-02-11T17:36:08.006Z,235.00
2023-02-11T17:38:35.359Z,253.07
2023-02-11T17:41:02.848Z,173.60
2023-02-11T17:43:29.412Z,105.25
2023-02-11T17:45:56.070Z,79.80
2023-02-11T17:48:22.716Z,81.45
2023-02-11T17:50:49.347Z,63.65
2023-02-11T17:53:15.902Z,66.35
2023-02-11T17:55:42.459Z,80.63
2023-02-11T17:58:09.057Z,82.30
2023-02-11T18:00:35.656Z,81.00
2023-02-11T18:03:03.318Z,73.95
2023-02-11T18:05:37.459Z,73.15
2023-02-11T18:08:06.056Z,72.15
2023-02-11T18:10:33.570Z,64.43
2023-02-11T18:13:01.343Z,58.25
2023-02-11T18:15:27.975Z,64.22
2023-02-11T18:17:55.837Z,62.65
2023-02-11T18:20:22.463Z,56.05
2023-02-11T18:22:49.068Z,67.70
2023-02-11T18:25:16.130Z,66.13
2023-02-11T18:27:42.932Z,61.95
2023-02-11T18:30:15.397Z,66.00
2023-02-11T18:32:42.103Z,61.42
2023-02-11T18:35:14.814Z,65.78
2023-02-11T18:37:42.648Z,66.18
2023-02-11T18:40:10.521Z,68.28
2023-02-11T18:42:37.113Z,72.10
2023-02-11T18:45:09.647Z,68.18
2023-02-11T18:47:40.623Z,65.15
2023-02-11T18:50:09.185Z,65.53
2023-02-11T18:52:38.967Z,71.18
2023-02-11T18:55:06.643Z,72.05
2023-02-11T18:57:33.268Z,69.07
2023-02-11T19:00:00.081Z,62.00
2023-02-11T19:02:26.978Z,64.20
2023-02-11T19:04:53.511Z,66.45
2023-02-11T19:07:20.267Z,62.95
2023-02-11T19:09:46.774Z,62.55
2023-02-11T19:12:13.484Z,61.10
2023-02-11T19:14:40.082Z,59.40
2023-02-11T19:17:07.691Z,58.30
2023-02-11T19:19:36.140Z,61.10
2023-02-11T19:22:07.918Z,61.50
2023-02-11T19:24:37.312Z,57.58
2023-02-11T19:27:04.964Z,57.70
2023-02-11T19:29:33.448Z,63.25
2023-02-11T19:32:00.080Z,61.90
2023-02-11T19:34:26.769Z,54.47
2023-02-11T19:36:54.393Z,58.80
2023-02-11T19:39:21.076Z,60.63
2023-02-11T19:41:47.598Z,61.92
2023-02-11T19:44:14.746Z,58.75
2023-02-11T19:46:41.443Z,61.03
2023-02-11T19:49:10.030Z,58.50
2023-02-11T19:51:39.415Z,52.00
2023-02-11T19:54:07.106Z,53.20
2023-02-11T19:56:34.417Z,52.47
2023-02-11T19:59:02.908Z,64.05
2023-02-11T20:01:29.472Z,59.13
2023-02-11T20:03:57.495Z,47.03
2023-02-11T20:06:28.071Z,52.58
2023-02-11T20:08:58.635Z,47.05
2023-02-11T20:11:28.124Z,50.38
2023-02-11T20:13:55.128Z,49.85
2023-02-11T20:16:27.087Z,42.15
2023-02-11T20:19:00.948Z,46.58
2023-02-11T20:21:31.620Z,44.42
2023-02-11T20:23:59.207Z,43.15
2023-02-11T20:26:32.229Z,43.92
2023-02-11T20:29:03.590Z,45.05
2023-02-11T20:31:32.319Z,44.85
2023-02-11T20:33:59.914Z,47.50
2023-02-11T20:36:32.414Z,47.25
2023-02-11T20:39:00.376Z,50.22
2023-02-11T20:41:32.012Z,50.53
2023-02-11T20:44:01.743Z,48.65
2023-02-11T20:46:30.327Z,53.03
2023-02-11T20:48:57.633Z,48.05
2023-02-11T20:51:31.495Z,50.50
2023-02-11T20:53:59.450Z,49.30
2023-02-11T20:56:31.495Z,50.58
2023-02-11T20:58:59.298Z,43.20
2023-02-11T21:01:31.760Z,45.90
2023-02-11T21:04:02.257Z,44.95
2023-02-11T21:06:36.349Z,48.75
2023-02-11T21:09:05.011Z,43.00
2023-02-11T21:11:31.738Z,43.50
2023-02-11T21:13:59.196Z,43.47
2023-02-11T21:16:26.948Z,43.25
2023-02-11T21:18:55.422Z,38.70
2023-02-11T21:21:22.259Z,42.05
2023-02-11T21:23:48.815Z,39.33
2023-02-11T21:26:16.978Z,34.72
2023-02-11T21:28:44.371Z,39.05
2023-02-11T21:31:19.465Z,39.42
2023-02-11T21:33:46.095Z,42.67
2023-02-11T21:36:14.070Z,49.67
2023-02-11T21:38:41.217Z,41.38
2023-02-11T21:41:07.845Z,44.15
2023-02-11T21:43:34.576Z,39.10
2023-02-11T21:46:01.553Z,49.85
2023-02-11T21:48:28.546Z,37.47
2023-02-11T21:50:55.170Z,42.13
2023-02-11T21:53:21.738Z,38.10
2023-02-11T21:55:51.613Z,32.67
2023-02-11T21:58:18.311Z,34.58
2023-02-11T22:00:44.905Z,36.17
2023-02-11T22:03:12.366Z,34.10
2023-02-11T22:05:41.146Z,37.08
2023-02-11T22:08:07.755Z,35.80
2023-02-11T22:10:34.310Z,38.40
2023-02-11T22:13:00.848Z,36.13
2023-02-11T22:15:27.474Z,32.95
2023-02-11T22:17:56.132Z,38.70
2023-02-11T22:20:23.091Z,33.72
2023-02-11T22:22:50.868Z,34.45
2023-02-11T22:25:17.914Z,35.30
2023-02-11T22:27:44.693Z,34.70
2023-02-11T22:30:11.823Z,33.60
2023-02-11T22:32:38.380Z,38.90
2023-02-11T22:35:05.189Z,35.92
2023-02-11T22:37:31.797Z,37.22
2023-02-11T22:39:58.333Z,43.25
2023-02-11T22:42:24.915Z,46.72
2023-02-11T22:44:51.578Z,48.42
2023-02-11T22:47:18.110Z,47.35
2023-02-11T22:49:44.674Z,50.67
2023-02-11T22:52:12.295Z,41.17
2023-02-11T22:54:38.972Z,38.40
2023-02-11T22:57:05.569Z,45.45
2023-02-11T22:59:32.130Z,36.13
2023-02-11T23:01:58.830Z,42.38
2023-02-11T23:04:25.430Z,35.55
2023-02-11T23:06:52.141Z,36.60
2023-02-11T23:09:18.768Z,37.17
2023-02-11T23:11:45.574Z,35.05
2023-02-11T23:14:12.353Z,41.63
2023-02-11T23:16:39.405Z,37.10
2023-02-11T23:19:08.435Z,38.03
2023-02-11T23:21:38.133Z,38.28
2023-02-11T23:24:08.428Z,39.20
2023-02-11T23:26:37.235Z,35.40
2023-02-11T23:29:04.034Z,38.05
2023-02-11T23:31:37.857Z,36.70
2023-02-11T23:34:04.825Z,35.13
2023-02-11T23:36:31.561Z,34.55
2023-02-11T23:38:58.128Z,35.22
2023-02-11T23:41:25.299Z,39.60
2023-02-11T23:43:54.070Z,41.13
2023-02-11T23:46:22.021Z,40.13
2023-02-11T23:48:50.033Z,37.47
2023-02-11T23:51:16.693Z,36.97
2023-02-11T23:53:45.751Z,35.90
2023-02-11T23:56:19.143Z,37.30
2023-02-11T23:58:49.043Z,39.55
